Huvudsida
METAR-TAF:

METAR-TAF

Flygplatser :

Matsapha Airport

Manzini, Swaziland

latitud: 26-32S, longitud: 031-18E, höjd: 641 m

Aktuellt väderrapport

Denna rapport gjordes för 3 timmar och 38 minuter sedan, klockan 15:00 UTC
Stilla vind
Temperatur 22°C
Fuktighet 53%
Tryck 1020 hPa
Sikt 10 km eller mer
Inga moln under 1 500 m eller inga cumulonimbus

METAR: FDMS 231500Z 00000KT CAVOK 22/12 Q1020 NOSIG

Tid: 20:38 (18:38 UTC)

Väderprognos

Denna rapport gjordes för 8 timmar och 38 minuter sedan, klockan 10:00 UTC
Prognos gäller från 23 kl. 12 UTC till 23 kl. 21 UTC
Vind 5 kt från nordväst
Sikt 10 km eller mer
Inga moln under 1 500 m eller inga cumulonimbus

TAF: FDMS 231000Z 2312/2321 32005KT CAVOK

Aktuella väderrapporter och prognoser från 4000 flygplatser (METAR- och TAF-rapporter).

De tillgängliga stationerna syns som gula och röda prickar på kartan.

För musen över prickarna för att se namnen på stationerna.

Klicka sedan för att få väderrapporter och prognoser.

För att ändra kartan: Klicka på de gröna knapparna med ett svart kors på för att zooma in; den gröna knappen med ett streck på för att zooma ut; eller på de gröna pilarna för angränsande kartor.


METAR-TAF: